Time;durP1;ratioP1;P1;durP2;ratioP2;P2;SDS_P1;SDS_P2;PMS_P1;PMS_P2;Temp;Humidity;BMP_temperature;BMP_pressure;BME280_temperature;BME280_humidity;BME280_pressure;Samples;Min_cycle;Max_cycle;Signal;HPM_P1;HPM_P2
2023/12/14 00:01:40;;;;;;;11.27;4.00;;;5.20;99.90;;;;;;5074246;28;20044;-69
2023/12/14 00:04:06;;;;;;;12.90;3.63;;;5.20;99.90;;;;;;5072196;28;20118;-68
2023/12/14 00:06:31;;;;;;;8.00;3.97;;;5.20;99.90;;;;;;5079481;28;20139;-68
2023/12/14 00:08:57;;;;;;;8.80;3.90;;;5.20;99.90;;;;;;5082949;28;20048;-68
2023/12/14 00:11:22;;;;;;;9.57;3.27;;;5.20;99.90;;;;;;5071807;28;20040;-69
2023/12/14 00:13:48;;;;;;;7.03;3.47;;;5.20;99.90;;;;;;5076709;28;20036;-69
2023/12/14 00:16:14;;;;;;;8.20;3.87;;;5.20;99.90;;;;;;5076625;28;20441;-69
2023/12/14 00:18:39;;;;;;;8.93;3.93;;;5.20;99.90;;;;;;5070110;28;20135;-69
2023/12/14 00:21:05;;;;;;;9.33;3.93;;;5.20;99.90;;;;;;5076942;28;20504;-68
2023/12/14 00:23:33;;;;;;;8.20;3.40;;;5.10;99.90;;;;;;5074681;28;20044;-69
2023/12/14 00:25:59;;;;;;;6.28;3.55;;;5.10;99.90;;;;;;5081904;28;20043;-69
2023/12/14 00:28:27;;;;;;;8.90;3.53;;;5.10;99.90;;;;;;5075387;28;20050;-68
2023/12/14 00:30:53;;;;;;;9.27;3.75;;;5.10;99.90;;;;;;5076479;28;20032;-69
2023/12/14 00:33:18;;;;;;;11.17;3.20;;;5.10;99.90;;;;;;5084585;28;20035;-68
2023/12/14 00:35:47;;;;;;;10.20;4.20;;;5.10;99.90;;;;;;5077833;28;20028;-69
2023/12/14 00:38:12;;;;;;;7.07;3.50;;;5.10;99.90;;;;;;5074701;28;20085;-69
2023/12/14 00:40:38;;;;;;;7.47;3.77;;;5.10;99.90;;;;;;5078501;28;20048;-68
2023/12/14 00:43:03;;;;;;;6.20;4.37;;;5.10;99.90;;;;;;5077250;28;20044;-69
2023/12/14 00:45:29;;;;;;;8.37;3.77;;;5.10;99.90;;;;;;5079650;28;20540;-68
2023/12/14 00:47:55;;;;;;;7.27;3.70;;;5.10;99.90;;;;;;5081958;28;20036;-69
2023/12/14 00:50:26;;;;;;;6.73;3.57;;;5.00;99.90;;;;;;5088791;28;20075;-68
2023/12/14 00:52:52;;;;;;;7.88;3.70;;;5.00;99.90;;;;;;5078337;28;20044;-69
2023/12/14 00:55:17;;;;;;;9.23;3.47;;;5.00;99.90;;;;;;5086094;28;20036;-69
2023/12/14 00:57:43;;;;;;;7.23;3.07;;;5.00;99.90;;;;;;5081168;28;20033;-69
2023/12/14 01:00:10;;;;;;;8.27;3.83;;;5.00;99.90;;;;;;5078501;28;20329;-69
2023/12/14 01:02:36;;;;;;;7.15;3.40;;;5.00;99.90;;;;;;5082348;28;20044;-69
2023/12/14 01:05:02;;;;;;;5.45;3.03;;;5.00;99.90;;;;;;5080715;28;20063;-68
2023/12/14 01:07:27;;;;;;;9.03;3.03;;;5.00;99.90;;;;;;5083518;28;20051;-69
2023/12/14 01:09:53;;;;;;;7.90;3.93;;;4.90;99.90;;;;;;5078377;28;20024;-69
2023/12/14 01:12:20;;;;;;;8.97;3.80;;;4.90;99.90;;;;;;5081637;28;20036;-69
2023/12/14 01:14:48;;;;;;;7.40;2.95;;;4.90;99.90;;;;;;5066205;28;20419;-68
2023/12/14 01:17:14;;;;;;;7.88;3.65;;;4.90;99.90;;;;;;5084206;28;20177;-68
2023/12/14 01:19:41;;;;;;;6.87;3.63;;;4.90;99.90;;;;;;5082098;28;20116;-69
2023/12/14 01:22:06;;;;;;;8.80;3.25;;;4.90;99.90;;;;;;5086088;28;20488;-69
2023/12/14 01:24:32;;;;;;;8.10;3.90;;;4.80;99.90;;;;;;5077679;28;20130;-69
2023/12/14 01:27:00;;;;;;;9.00;3.73;;;4.80;99.90;;;;;;5083608;28;20075;-69
2023/12/14 01:29:26;;;;;;;6.68;3.47;;;4.90;99.90;;;;;;5076508;28;20040;-69
2023/12/14 01:31:51;;;;;;;7.70;3.83;;;4.80;99.90;;;;;;5081767;28;20032;-69
2023/12/14 01:34:17;;;;;;;8.60;3.77;;;4.80;99.90;;;;;;5090384;28;20036;-69
2023/12/14 01:36:43;;;;;;;7.20;3.87;;;4.80;99.90;;;;;;5083556;28;20143;-68
2023/12/14 01:39:11;;;;;;;9.63;4.27;;;4.80;99.90;;;;;;5077502;28;20040;-68
2023/12/14 01:41:37;;;;;;;8.10;3.58;;;4.80;99.90;;;;;;5077885;28;20560;-68
2023/12/14 01:44:05;;;;;;;7.37;3.33;;;4.80;99.90;;;;;;5085281;28;20135;-68
2023/12/14 01:46:30;;;;;;;7.30;3.55;;;4.80;99.90;;;;;;5082326;28;20048;-68
2023/12/14 01:48:56;;;;;;;5.90;3.90;;;4.80;99.90;;;;;;5083470;28;20032;-68
2023/12/14 01:51:25;;;;;;;7.33;3.47;;;4.80;99.90;;;;;;5082959;28;20113;-69
2023/12/14 01:53:50;;;;;;;6.53;2.90;;;4.80;99.90;;;;;;5085175;28;20063;-68
2023/12/14 01:56:16;;;;;;;6.93;3.47;;;4.80;99.90;;;;;;5079890;28;20396;-68
2023/12/14 01:58:41;;;;;;;5.23;3.20;;;4.80;99.90;;;;;;5086750;28;20097;-68
2023/12/14 02:01:31;;;;;;;7.83;3.40;;;4.80;99.90;;;;;;5081344;28;20044;-68
2023/12/14 02:03:59;;;;;;;6.97;3.28;;;4.80;99.90;;;;;;5094907;28;20070;-68
2023/12/14 02:06:28;;;;;;;5.15;2.80;;;4.80;99.90;;;;;;5081040;28;20548;-68
2023/12/14 02:08:53;;;;;;;5.97;3.13;;;4.80;99.90;;;;;;5088900;28;20137;-68
2023/12/14 02:11:22;;;;;;;7.07;3.58;;;4.80;99.90;;;;;;5078605;28;20040;-68
2023/12/14 02:13:47;;;;;;;5.77;3.23;;;4.80;99.90;;;;;;5085812;28;20043;-68
2023/12/14 02:16:13;;;;;;;6.17;3.17;;;4.80;99.90;;;;;;5079543;28;20083;-68
2023/12/14 02:18:39;;;;;;;7.47;2.97;;;4.80;99.90;;;;;;5086504;28;20050;-67
2023/12/14 02:21:05;;;;;;;6.03;3.35;;;4.80;99.90;;;;;;5092807;28;20051;-67
2023/12/14 02:23:31;;;;;;;11.87;3.03;;;4.80;99.90;;;;;;5085044;28;20040;-67
2023/12/14 02:25:56;;;;;;;6.17;3.00;;;4.80;99.90;;;;;;5087614;28;20127;-67
2023/12/14 02:28:24;;;;;;;7.63;3.25;;;4.90;99.90;;;;;;5086721;28;20512;-68
2023/12/14 02:30:50;;;;;;;9.93;2.97;;;4.80;99.90;;;;;;5073612;28;20044;-67
2023/12/14 02:33:16;;;;;;;9.37;3.77;;;4.80;99.90;;;;;;5077818;28;20101;-68
2023/12/14 02:35:42;;;;;;;8.80;3.60;;;4.90;99.90;;;;;;5076449;28;20094;-67
2023/12/14 02:38:08;;;;;;;8.02;4.00;;;4.80;99.90;;;;;;5085101;28;20040;-68
2023/12/14 02:40:34;;;;;;;6.70;3.47;;;4.80;99.90;;;;;;5075004;28;20473;-67
2023/12/14 02:42:59;;;;;;;9.87;4.33;;;4.90;99.90;;;;;;5088518;28;20054;-67
2023/12/14 02:45:25;;;;;;;9.63;4.73;;;4.90;99.90;;;;;;5072288;28;20045;-68
2023/12/14 02:47:51;;;;;;;7.23;3.90;;;4.90;99.90;;;;;;5083521;28;20032;-67
2023/12/14 02:50:17;;;;;;;;;;;4.90;99.90;;;;;;5079649;28;20514;-68
2023/12/14 02:52:45;;;;;;;8.07;4.07;;;4.90;99.90;;;;;;5075347;28;19916;-67
2023/12/14 02:55:11;;;;;;;9.73;4.55;;;4.80;99.90;;;;;;5085934;28;20036;-68
2023/12/14 02:57:36;;;;;;;10.70;3.93;;;4.90;99.90;;;;;;5083557;28;20543;-67
2023/12/14 03:00:02;;;;;;;8.77;4.03;;;4.90;99.90;;;;;;5078555;28;20052;-68
2023/12/14 03:02:28;;;;;;;10.80;4.20;;;4.90;99.90;;;;;;5078706;28;20078;-68
2023/12/14 03:04:54;;;;;;;9.83;4.00;;;4.80;99.90;;;;;;5084579;28;20079;-68
2023/12/14 03:07:19;;;;;;;9.77;4.50;;;4.90;99.90;;;;;;5080029;28;20185;-68
2023/12/14 03:09:45;;;;;;;13.20;4.57;;;4.90;99.90;;;;;;5080129;28;20043;-68
2023/12/14 03:12:13;;;;;;;7.47;3.90;;;4.90;99.90;;;;;;5076018;28;20070;-69
2023/12/14 03:14:42;;;;;;;10.27;4.55;;;4.90;99.90;;;;;;5084779;28;20047;-69
2023/12/14 03:17:12;;;;;;;9.15;4.07;;;4.90;99.90;;;;;;5092077;28;20036;-69
2023/12/14 03:19:40;;;;;;;9.55;4.25;;;4.90;99.90;;;;;;5076533;28;20036;-69
2023/12/14 03:22:07;;;;;;;8.60;4.43;;;4.90;99.90;;;;;;5078298;28;20085;-69
2023/12/14 03:24:32;;;;;;;10.15;4.38;;;4.90;99.90;;;;;;5084101;28;20040;-69
2023/12/14 03:27:02;;;;;;;9.77;3.77;;;4.90;99.90;;;;;;5080128;28;20059;-69
2023/12/14 03:29:28;;;;;;;10.65;4.25;;;4.90;99.90;;;;;;5080295;28;20111;-69
2023/12/14 03:31:57;;;;;;;9.68;3.80;;;4.90;99.90;;;;;;5083557;28;20472;-69
2023/12/14 03:34:24;;;;;;;10.02;3.63;;;4.90;99.90;;;;;;5084108;28;20050;-69
2023/12/14 03:36:50;;;;;;;7.68;3.83;;;4.90;99.90;;;;;;5082792;28;20059;-69
2023/12/14 03:39:18;;;;;;;8.73;3.75;;;4.90;99.90;;;;;;5080657;28;20655;-69
2023/12/14 03:41:44;;;;;;;9.20;3.55;;;4.90;99.90;;;;;;5081890;28;20040;-69
2023/12/14 03:44:10;;;;;;;8.80;4.15;;;4.90;99.90;;;;;;5072411;28;20126;-69
2023/12/14 03:46:35;;;;;;;9.83;3.97;;;4.90;99.90;;;;;;5083061;28;20592;-69
2023/12/14 03:49:02;;;;;;;11.10;4.00;;;4.90;99.90;;;;;;5086318;28;20523;-69
2023/12/14 03:51:28;;;;;;;;;;;4.90;99.90;;;;;;5080062;28;20056;-69
2023/12/14 03:53:53;;;;;;;13.13;4.25;;;4.90;99.90;;;;;;5065835;28;19916;-69
2023/12/14 03:56:19;;;;;;;13.50;4.35;;;4.90;99.90;;;;;;5084293;28;20564;-69
2023/12/14 03:58:45;;;;;;;15.57;5.43;;;4.90;99.90;;;;;;5080301;28;20119;-69
2023/12/14 04:01:21;;;;;;;11.10;4.33;;;4.90;99.90;;;;;;5089636;28;20071;-69
2023/12/14 04:03:48;;;;;;;10.63;4.88;;;4.90;99.90;;;;;;5082388;28;20083;-69
2023/12/14 04:06:14;;;;;;;10.82;4.20;;;4.90;99.90;;;;;;5088332;28;20035;-69
2023/12/14 04:08:40;;;;;;;9.70;4.50;;;4.90;99.90;;;;;;5076885;28;20040;-69
2023/12/14 04:11:07;;;;;;;13.98;5.22;;;4.90;99.90;;;;;;5061365;28;20044;-69
2023/12/14 04:13:38;;;;;;;10.95;4.28;;;4.90;99.90;;;;;;5080842;28;20051;-69
2023/12/14 04:16:05;;;;;;;14.13;4.45;;;4.90;99.90;;;;;;5075012;28;22364;-69
2023/12/14 04:18:30;;;;;;;14.30;5.15;;;4.90;99.90;;;;;;5080360;28;20048;-69
2023/12/14 04:20:56;;;;;;;14.07;4.43;;;4.90;99.90;;;;;;5062945;28;20130;-69
2023/12/14 04:23:24;;;;;;;10.97;4.70;;;4.90;99.90;;;;;;5080093;28;20032;-69
2023/12/14 04:25:49;;;;;;;10.90;4.35;;;4.90;99.90;;;;;;5079187;28;20057;-69
2023/12/14 04:28:15;;;;;;;12.87;4.93;;;4.90;99.90;;;;;;5089060;28;20048;-69
2023/12/14 04:30:41;;;;;;;16.37;4.87;;;4.90;99.90;;;;;;5080724;28;20036;-69
2023/12/14 04:33:06;;;;;;;16.43;5.63;;;4.90;99.90;;;;;;5082669;28;20036;-69
2023/12/14 04:35:36;;;;;;;10.60;4.00;;;4.90;99.90;;;;;;5077430;28;20123;-69
2023/12/14 04:38:02;;;;;;;15.27;4.88;;;4.90;99.90;;;;;;5080192;28;20312;-69
2023/12/14 04:40:27;;;;;;;8.55;4.20;;;4.90;99.90;;;;;;5059176;28;20353;-68
2023/12/14 04:42:53;;;;;;;11.87;4.63;;;4.90;99.90;;;;;;5083947;28;20265;-69
2023/12/14 04:45:19;;;;;;;14.37;4.80;;;4.90;99.90;;;;;;5081150;28;20036;-69
2023/12/14 04:47:44;;;;;;;9.87;4.17;;;4.90;99.90;;;;;;5083481;28;20040;-69
2023/12/14 04:50:10;;;;;;;11.73;4.53;;;4.90;99.90;;;;;;5079288;28;20044;-69
2023/12/14 04:52:35;;;;;;;8.90;4.70;;;5.00;99.90;;;;;;5076862;28;20043;-69
2023/12/14 04:55:04;;;;;;;11.47;5.13;;;4.90;99.90;;;;;;5081161;28;20161;-69
2023/12/14 04:57:32;;;;;;;10.20;4.80;;;4.90;99.90;;;;;;5081109;28;20044;-69
2023/12/14 05:00:02;;;;;;;11.65;4.72;;;4.90;99.90;;;;;;5076908;28;20044;-69
2023/12/14 05:02:27;;;;;;;11.00;4.80;;;4.90;99.90;;;;;;5076947;28;20065;-69
2023/12/14 05:04:53;;;;;;;11.97;4.57;;;4.90;99.90;;;;;;5083971;28;20044;-69
2023/12/14 05:07:22;;;;;;;9.97;4.67;;;4.90;99.90;;;;;;5081212;28;20484;-69
2023/12/14 05:09:48;;;;;;;12.30;6.07;;;5.00;99.90;;;;;;5057149;28;20059;-69
2023/12/14 05:12:14;;;;;;;11.53;4.47;;;4.90;99.90;;;;;;5087891;28;20036;-73
2023/12/14 05:14:40;;;;;;;10.03;5.10;;;4.90;99.90;;;;;;5078485;28;20068;-69
2023/12/14 05:17:05;;;;;;;10.77;5.05;;;4.90;99.90;;;;;;5082386;28;20365;-69
2023/12/14 05:19:34;;;;;;;13.47;4.90;;;4.90;99.90;;;;;;5074996;28;20051;-71
2023/12/14 05:21:59;;;;;;;9.80;4.63;;;4.90;99.90;;;;;;5074585;28;20136;-69
2023/12/14 05:24:25;;;;;;;9.87;4.80;;;4.90;99.90;;;;;;5080463;28;20076;-71
2023/12/14 05:26:51;;;;;;;10.23;4.97;;;4.90;99.90;;;;;;5085038;28;20035;-72
2023/12/14 05:29:21;;;;;;;12.00;5.25;;;4.90;99.90;;;;;;5078753;28;20036;-69
2023/12/14 05:31:47;;;;;;;8.55;4.32;;;4.90;99.90;;;;;;5080971;28;20053;-69
2023/12/14 05:34:15;;;;;;;10.97;5.00;;;4.90;99.90;;;;;;5079038;28;20077;-69
2023/12/14 05:36:41;;;;;;;12.27;4.88;;;5.00;99.90;;;;;;5065463;28;20040;-71
2023/12/14 05:39:09;;;;;;;10.53;5.20;;;5.00;99.90;;;;;;5076123;28;20514;-73
2023/12/14 05:41:40;;;;;;;10.90;5.13;;;4.90;99.90;;;;;;5062980;28;20040;-71
2023/12/14 05:44:06;;;;;;;11.95;5.20;;;4.90;99.90;;;;;;5082592;28;20415;-69
2023/12/14 05:46:31;;;;;;;14.97;4.93;;;5.00;99.90;;;;;;5084065;28;20136;-70
2023/12/14 05:48:57;;;;;;;10.17;4.83;;;4.90;99.90;;;;;;5080518;28;20165;-70
2023/12/14 05:51:32;;;;;;;13.90;5.90;;;5.00;99.90;;;;;;5083700;28;20040;-72
2023/12/14 05:53:58;;;;;;;12.98;5.50;;;4.90;99.90;;;;;;5077000;28;20048;-70
2023/12/14 05:56:25;;;;;;;13.70;5.65;;;5.00;99.90;;;;;;5079520;28;20063;-74
2023/12/14 05:58:51;;;;;;;12.57;5.05;;;4.90;99.90;;;;;;5081186;28;20351;-75
2023/12/14 06:01:18;;;;;;;12.90;4.97;;;4.90;99.90;;;;;;5065172;28;20119;-76
2023/12/14 06:03:43;;;;;;;;;;;4.90;99.90;;;;;;5079905;28;20048;-74
2023/12/14 06:06:09;;;;;;;11.88;5.35;;;4.90;99.90;;;;;;5088530;28;20061;-75
2023/12/14 06:08:35;;;;;;;12.53;5.10;;;5.00;99.90;;;;;;5075711;28;20043;-77
2023/12/14 06:11:00;;;;;;;9.53;5.30;;;5.00;99.90;;;;;;5081923;28;20550;-73
2023/12/14 06:13:26;;;;;;;12.83;5.43;;;4.90;99.90;;;;;;5083010;28;20148;-76
2023/12/14 06:15:54;;;;;;;13.33;5.90;;;4.90;99.90;;;;;;5085464;28;20081;-71
2023/12/14 06:18:23;;;;;;;13.13;5.47;;;5.00;99.90;;;;;;5084527;28;20044;-72
2023/12/14 06:20:48;;;;;;;11.50;5.07;;;5.00;99.90;;;;;;5086748;28;20611;-74
2023/12/14 06:23:14;;;;;;;13.57;5.93;;;5.00;99.90;;;;;;5077413;28;20123;-74
2023/12/14 06:25:40;;;;;;;12.70;5.50;;;5.00;99.90;;;;;;5086448;28;20048;-74
2023/12/14 06:28:07;;;;;;;12.17;5.70;;;5.00;99.90;;;;;;5079857;28;20056;-75
2023/12/14 06:30:33;;;;;;;14.38;6.07;;;5.00;99.90;;;;;;5087272;28;20068;-74
2023/12/14 06:32:59;;;;;;;12.73;5.50;;;5.00;99.90;;;;;;5088700;28;20128;-76
2023/12/14 06:35:25;;;;;;;10.97;5.03;;;5.00;99.90;;;;;;5078631;28;20074;-70
2023/12/14 06:37:50;;;;;;;15.90;5.33;;;5.00;99.90;;;;;;5079987;28;20059;-70
2023/12/14 06:40:16;;;;;;;10.23;4.87;;;4.90;99.90;;;;;;5079771;28;20051;-70
2023/12/14 06:42:44;;;;;;;13.00;4.78;;;5.00;99.90;;;;;;5084949;28;20490;-70
2023/12/14 06:45:12;;;;;;;9.45;5.40;;;5.00;99.90;;;;;;5084210;28;20311;-71
2023/12/14 06:47:41;;;;;;;13.25;4.88;;;4.90;99.90;;;;;;5074145;28;20040;-71
2023/12/14 06:50:09;;;;;;;14.60;5.50;;;4.90;99.90;;;;;;5080984;28;20093;-72
2023/12/14 06:52:35;;;;;;;11.38;5.68;;;5.00;99.90;;;;;;5079335;28;20349;-72
2023/12/14 06:55:03;;;;;;;11.30;5.40;;;4.90;99.90;;;;;;5087951;28;20469;-79
2023/12/14 06:57:29;;;;;;;11.35;4.80;;;5.00;99.90;;;;;;5075232;28;20048;-72
2023/12/14 06:59:57;;;;;;;14.40;5.10;;;5.00;99.90;;;;;;5086867;28;20066;-71
2023/12/14 07:02:23;;;;;;;11.43;5.32;;;5.00;99.90;;;;;;5075086;28;20512;-72
2023/12/14 07:04:51;;;;;;;13.57;4.40;;;5.00;99.90;;;;;;5077707;28;20048;-72
2023/12/14 07:07:17;;;;;;;12.03;4.53;;;5.00;99.90;;;;;;5079512;28;20135;-72
2023/12/14 07:09:44;;;;;;;11.45;5.10;;;5.00;99.90;;;;;;5078777;28;20046;-72
2023/12/14 07:12:11;;;;;;;13.45;5.53;;;5.00;99.90;;;;;;5083663;28;20040;-72
2023/12/14 07:14:37;;;;;;;12.63;4.90;;;5.00;99.90;;;;;;5079037;28;20406;-72
2023/12/14 07:17:05;;;;;;;19.37;6.27;;;5.00;99.90;;;;;;5084146;28;20052;-72
2023/12/14 07:19:31;;;;;;;12.25;5.38;;;5.00;99.90;;;;;;5078623;28;20036;-72
2023/12/14 07:21:57;;;;;;;;;;;5.00;99.90;;;;;;5076571;28;20173;-71
2023/12/14 07:24:22;;;;;;;12.18;4.72;;;5.00;99.90;;;;;;5076562;28;19974;-71
2023/12/14 07:26:49;;;;;;;14.50;6.07;;;4.90;99.90;;;;;;5093153;28;20042;-72
2023/12/14 07:29:20;;;;;;;;;;;5.00;99.90;;;;;;5081415;28;20452;-71
2023/12/14 07:31:47;;;;;;;14.95;4.90;;;5.00;99.90;;;;;;5081591;28;19978;-72
2023/12/14 07:34:13;;;;;;;10.97;4.93;;;5.00;99.90;;;;;;5079591;28;20512;-72
2023/12/14 07:36:38;;;;;;;15.87;5.47;;;5.00;99.90;;;;;;5077595;28;20062;-72
2023/12/14 07:39:05;;;;;;;12.43;5.83;;;5.00;99.90;;;;;;5073893;28;20047;-71
2023/12/14 07:41:32;;;;;;;11.52;5.68;;;5.00;99.90;;;;;;5083106;28;20561;-72
2023/12/14 07:43:58;;;;;;;17.08;5.53;;;5.00;99.90;;;;;;5080137;28;20050;-72
2023/12/14 07:46:23;;;;;;;14.50;5.35;;;5.00;99.90;;;;;;5098552;27;20126;-72
2023/12/14 07:48:52;;;;;;;14.00;5.80;;;5.00;99.90;;;;;;5081276;28;20565;-72
2023/12/14 07:51:18;;;;;;;14.32;4.90;;;5.00;99.90;;;;;;5073975;28;20110;-72
2023/12/14 07:53:43;;;;;;;9.57;4.70;;;5.00;99.90;;;;;;5080591;28;20388;-72
2023/12/14 07:56:09;;;;;;;21.00;7.27;;;5.00;99.90;;;;;;5067968;28;20115;-72
2023/12/14 07:58:34;;;;;;;21.63;7.37;;;5.00;99.90;;;;;;5081308;28;20079;-72
2023/12/14 08:01:00;;;;;;;12.97;6.10;;;5.10;99.90;;;;;;5092505;28;20078;-71
2023/12/14 08:03:26;;;;;;;17.23;6.70;;;5.00;99.90;;;;;;5072713;28;23071;-72
2023/12/14 08:05:51;;;;;;;14.00;5.73;;;5.10;99.90;;;;;;5085877;28;20515;-72
2023/12/14 08:08:17;;;;;;;10.93;4.90;;;5.10;99.90;;;;;;5084888;28;20040;-72
2023/12/14 08:10:42;;;;;;;14.40;5.77;;;5.10;99.90;;;;;;5081997;28;20028;-71
2023/12/14 08:13:08;;;;;;;14.23;5.27;;;5.00;99.90;;;;;;5080454;28;20467;-72
2023/12/14 08:15:34;;;;;;;12.40;5.97;;;5.00;99.90;;;;;;5075105;28;20114;-71
2023/12/14 08:17:59;;;;;;;14.67;6.30;;;5.10;99.90;;;;;;5076674;28;20408;-72
2023/12/14 08:20:25;;;;;;;14.13;5.57;;;5.10;99.90;;;;;;5075971;28;20083;-72
2023/12/14 08:22:51;;;;;;;15.70;6.13;;;5.10;99.90;;;;;;5077280;28;20044;-72
2023/12/14 08:25:17;;;;;;;11.27;6.23;;;5.10;99.90;;;;;;5081180;28;20051;-71
2023/12/14 08:27:46;;;;;;;11.98;5.68;;;5.10;99.90;;;;;;5077787;28;20049;-72
2023/12/14 08:30:13;;;;;;;15.85;5.75;;;5.10;99.90;;;;;;5086567;28;20040;-71
2023/12/14 08:32:38;;;;;;;;;;;5.20;99.90;;;;;;5079166;28;20086;-72
2023/12/14 08:35:04;;;;;;;12.13;5.65;;;5.10;99.90;;;;;;5061796;28;20221;-72
2023/12/14 08:37:30;;;;;;;16.67;6.32;;;5.20;99.90;;;;;;5066805;28;20055;-72
2023/12/14 08:39:56;;;;;;;16.67;5.83;;;5.20;99.90;;;;;;5078567;28;20622;-72
2023/12/14 08:42:22;;;;;;;14.40;5.83;;;5.20;99.90;;;;;;5078547;28;20043;-72
2023/12/14 08:44:48;;;;;;;24.00;6.57;;;5.20;99.90;;;;;;5069905;28;20131;-72
2023/12/14 08:47:13;;;;;;;15.07;5.97;;;5.30;99.90;;;;;;5077829;28;20173;-71
2023/12/14 08:49:39;;;;;;;15.40;6.50;;;5.30;99.90;;;;;;5076162;28;20112;-71
2023/12/14 08:52:05;;;;;;;15.93;6.83;;;5.30;99.90;;;;;;5057822;28;20036;-72
2023/12/14 08:54:30;;;;;;;13.30;5.97;;;5.30;99.90;;;;;;5070297;28;20510;-71
2023/12/14 08:56:56;;;;;;;14.97;6.33;;;5.30;99.90;;;;;;5075035;28;20618;-71
2023/12/14 08:59:21;;;;;;;13.43;5.43;;;5.30;99.90;;;;;;5076316;28;20044;-72
2023/12/14 09:01:47;;;;;;;13.93;5.57;;;5.30;99.90;;;;;;5079581;28;20040;-72
2023/12/14 09:04:13;;;;;;;13.33;5.73;;;5.20;99.90;;;;;;5076818;28;20571;-72
2023/12/14 09:06:42;;;;;;;16.33;5.63;;;5.30;99.90;;;;;;5074206;28;20146;-72
2023/12/14 09:09:07;;;;;;;17.55;6.57;;;5.30;99.90;;;;;;5068682;28;20051;-71
2023/12/14 09:11:34;;;;;;;14.90;5.70;;;5.30;99.90;;;;;;5055251;28;20444;-71
2023/12/14 09:14:00;;;;;;;12.50;5.40;;;5.30;99.90;;;;;;5065084;28;20036;-71
2023/12/14 09:16:26;;;;;;;14.23;5.50;;;5.30;99.90;;;;;;5072469;28;20056;-71
2023/12/14 09:18:52;;;;;;;12.77;5.05;;;5.30;99.90;;;;;;5075941;28;20043;-71
2023/12/14 09:21:18;;;;;;;13.80;6.13;;;5.30;99.90;;;;;;5071679;28;20044;-72
2023/12/14 09:23:43;;;;;;;16.03;6.30;;;5.30;99.90;;;;;;5084246;28;20541;-71
2023/12/14 09:26:10;;;;;;;16.53;6.00;;;5.30;99.90;;;;;;5076827;28;20063;-72
2023/12/14 09:28:36;;;;;;;15.18;5.60;;;5.30;99.90;;;;;;5082463;28;20530;-71
2023/12/14 09:31:02;;;;;;;17.55;5.95;;;5.30;99.90;;;;;;5082576;28;20119;-72
2023/12/14 09:33:28;;;;;;;13.50;5.50;;;5.40;99.90;;;;;;5080002;28;20136;-71
2023/12/14 09:35:53;;;;;;;12.93;6.03;;;5.40;99.90;;;;;;5072119;28;20028;-71
2023/12/14 09:38:19;;;;;;;12.93;5.27;;;5.40;99.90;;;;;;5082028;28;20052;-72
2023/12/14 09:40:45;;;;;;;15.27;5.33;;;5.40;99.90;;;;;;5091946;28;20484;-71
2023/12/14 09:43:12;;;;;;;14.50;5.60;;;5.40;99.90;;;;;;5083137;28;20232;-71
2023/12/14 09:45:41;;;;;;;15.95;5.88;;;5.50;99.90;;;;;;5086829;28;21106;-71
2023/12/14 09:48:09;;;;;;;14.38;6.10;;;5.50;99.90;;;;;;5080496;28;20048;-71
2023/12/14 09:50:37;;;;;;;16.27;6.05;;;5.50;99.90;;;;;;5077594;28;20048;-73
2023/12/14 09:53:02;;;;;;;13.02;5.40;;;5.60;99.90;;;;;;5081839;28;20500;-71
2023/12/14 09:55:28;;;;;;;14.17;6.13;;;5.60;99.90;;;;;;5060763;28;20070;-71
2023/12/14 09:57:54;;;;;;;16.60;5.75;;;5.60;99.90;;;;;;5077064;28;20044;-71
2023/12/14 10:00:37;;;;;;;15.03;6.50;;;5.70;99.90;;;;;;5067992;28;20048;-71
2023/12/14 10:03:19;;;;;;;18.30;6.78;;;5.70;99.90;;;;;;5084224;28;20098;-71
2023/12/14 10:05:45;;;;;;;11.50;5.63;;;5.80;99.90;;;;;;5078058;28;20474;-71
2023/12/14 10:08:11;;;;;;;63.70;23.02;;;5.80;99.90;;;;;;5092177;28;20413;-69
2023/12/14 10:10:36;;;;;;;24.90;10.90;;;5.90;99.90;;;;;;5084046;28;20094;-69
2023/12/14 10:13:02;;;;;;;16.50;7.60;;;5.90;99.90;;;;;;5086842;28;20058;-69
2023/12/14 10:15:29;;;;;;;11.17;6.20;;;5.90;99.90;;;;;;5078532;28;20404;-69
2023/12/14 10:17:57;;;;;;;13.65;4.72;;;5.90;99.90;;;;;;5077760;28;20073;-69
2023/12/14 10:20:23;;;;;;;15.90;5.85;;;5.90;99.90;;;;;;5082359;28;20047;-69
2023/12/14 10:22:53;;;;;;;11.77;5.55;;;5.90;99.90;;;;;;5084238;28;20145;-69
2023/12/14 10:25:19;;;;;;;14.70;5.47;;;5.90;99.90;;;;;;5083313;28;20067;-69
2023/12/14 10:27:48;;;;;;;;;;;5.90;99.90;;;;;;5081557;28;20430;-69
2023/12/14 10:30:15;;;;;;;13.05;5.50;;;5.90;99.90;;;;;;5082729;28;19916;-69
2023/12/14 10:32:41;;;;;;;13.43;5.53;;;5.90;99.90;;;;;;5077634;28;20489;-69
2023/12/14 10:35:07;;;;;;;11.45;5.63;;;6.00;99.90;;;;;;5078967;28;20052;-69
2023/12/14 10:37:38;;;;;;;15.73;5.93;;;6.00;99.90;;;;;;5071720;28;20056;-69
2023/12/14 10:40:10;;;;;;;12.77;5.47;;;6.10;99.90;;;;;;5088354;28;20164;-69
2023/12/14 10:42:36;;;;;;;11.88;5.30;;;6.10;99.90;;;;;;5081198;28;20041;-69
2023/12/14 10:45:03;;;;;;;14.50;5.80;;;6.10;99.90;;;;;;5088257;27;20044;-69
2023/12/14 10:47:30;;;;;;;15.40;5.53;;;6.10;99.90;;;;;;5073395;28;20037;-69
2023/12/14 10:49:58;;;;;;;14.05;5.78;;;6.20;99.90;;;;;;5084880;28;20036;-70
2023/12/14 10:52:25;;;;;;;12.30;5.28;;;6.20;99.90;;;;;;5077561;28;20040;-82
2023/12/14 10:55:00;;;;;;;9.40;5.07;;;6.20;99.90;;;;;;5064927;28;20515;-70
2023/12/14 10:57:25;;;;;;;9.65;4.72;;;6.20;99.90;;;;;;5074824;28;20052;-69
2023/12/14 10:59:58;;;;;;;11.60;5.50;;;6.20;99.90;;;;;;5078655;28;20039;-72
2023/12/14 11:02:24;;;;;;;12.38;5.90;;;6.30;99.90;;;;;;5075866;28;20053;-75
2023/12/14 11:04:59;;;;;;;11.15;5.60;;;6.30;99.90;;;;;;5072921;28;20054;-70
2023/12/14 11:07:50;;;;;;;12.63;5.35;;;6.40;99.90;;;;;;5055439;28;20051;-70
2023/12/14 11:10:39;;;;;;;10.50;4.70;;;6.40;99.90;;;;;;5080524;28;20055;-71
2023/12/14 11:13:11;;;;;;;12.77;5.05;;;6.40;99.90;;;;;;5072718;28;20096;-70
2023/12/14 11:15:38;;;;;;;12.70;5.28;;;6.40;99.90;;;;;;5085880;28;20048;-70
2023/12/14 11:18:09;;;;;;;10.63;5.78;;;6.40;99.90;;;;;;5082818;28;20467;-70
2023/12/14 11:20:44;;;;;;;12.15;5.50;;;6.40;99.90;;;;;;5076412;28;20052;-70
2023/12/14 11:23:13;;;;;;;13.25;4.95;;;6.40;99.90;;;;;;5081946;28;20119;-70
2023/12/14 11:25:39;;;;;;;11.23;5.18;;;6.40;99.90;;;;;;5079189;28;20040;-70
2023/12/14 11:28:06;;;;;;;;;;;6.40;99.90;;;;;;5078849;28;20040;-70
2023/12/14 11:30:32;;;;;;;12.07;5.40;;;6.40;99.90;;;;;;5079952;28;19922;-70
2023/12/14 11:32:58;;;;;;;17.08;5.70;;;6.40;99.90;;;;;;5077837;28;20081;-70
2023/12/14 11:35:23;;;;;;;12.17;5.93;;;6.40;99.90;;;;;;5080622;28;20525;-70
2023/12/14 11:37:49;;;;;;;12.27;6.00;;;6.40;99.90;;;;;;5077715;28;20036;-70
2023/12/14 11:40:22;;;;;;;11.13;5.63;;;6.40;99.90;;;;;;5084216;28;20378;-70
2023/12/14 11:43:09;;;;;;;12.73;6.50;;;6.40;99.90;;;;;;5063197;28;20063;-70
2023/12/14 11:45:39;;;;;;;10.95;5.07;;;6.40;99.90;;;;;;5077793;28;20036;-70
2023/12/14 11:48:07;;;;;;;10.52;5.55;;;6.40;99.90;;;;;;5072448;28;20420;-70
2023/12/14 11:50:33;;;;;;;15.48;6.18;;;6.40;99.90;;;;;;5080096;28;20040;-70
2023/12/14 11:53:05;;;;;;;11.13;5.47;;;6.40;99.90;;;;;;5083347;28;20036;-70
2023/12/14 11:55:33;;;;;;;13.55;7.05;;;6.30;99.90;;;;;;5093126;28;20113;-70
2023/12/14 11:57:59;;;;;;;13.20;5.82;;;6.30;99.90;;;;;;5077922;28;20040;-70
2023/12/14 12:00:29;;;;;;;12.20;5.90;;;6.40;99.90;;;;;;5060101;28;20044;-70
2023/12/14 12:03:12;;;;;;;13.15;6.00;;;6.30;99.90;;;;;;5077378;28;20820;-70
2023/12/14 12:05:47;;;;;;;16.42;6.68;;;6.30;99.90;;;;;;5071028;28;20128;-70
2023/12/14 12:08:16;;;;;;;15.32;6.40;;;6.40;99.90;;;;;;5079302;28;20086;-70
2023/12/14 12:10:43;;;;;;;16.08;6.40;;;6.40;99.90;;;;;;5072282;28;20120;-70
2023/12/14 12:13:13;;;;;;;14.73;6.10;;;6.40;99.90;;;;;;5080097;28;20040;-70
2023/12/14 12:15:39;;;;;;;10.38;4.75;;;6.30;99.90;;;;;;5077546;28;20040;-70
2023/12/14 12:18:13;;;;;;;12.80;5.95;;;6.30;99.90;;;;;;5083847;28;20120;-70
2023/12/14 12:20:39;;;;;;;14.32;5.75;;;6.30;99.90;;;;;;5079683;28;20134;-70
2023/12/14 12:23:05;;;;;;;12.52;5.13;;;6.30;99.90;;;;;;5078307;28;20523;-70
2023/12/14 12:25:31;;;;;;;13.00;5.15;;;6.30;99.90;;;;;;5079771;28;20040;-70
2023/12/14 12:27:58;;;;;;;8.77;4.38;;;6.20;99.90;;;;;;5079559;28;20051;-70
2023/12/14 12:30:24;;;;;;;;;;;6.20;99.90;;;;;;5079425;28;20495;-70
2023/12/14 12:32:51;;;;;;;16.30;6.05;;;6.20;99.90;;;;;;5076466;28;19974;-70
2023/12/14 12:35:18;;;;;;;13.10;5.68;;;6.20;99.90;;;;;;5076675;28;20047;-70
2023/12/14 12:37:44;;;;;;;;;;;6.20;99.90;;;;;;5079207;28;20291;-70
2023/12/14 12:40:10;;;;;;;11.60;5.85;;;6.20;99.90;;;;;;5078051;28;19951;-71
2023/12/14 12:42:36;;;;;;;10.35;5.85;;;6.20;99.90;;;;;;5080090;28;20039;-70
2023/12/14 12:45:01;;;;;;;12.60;5.23;;;6.10;99.90;;;;;;5080902;28;20093;-70
2023/12/14 12:47:27;;;;;;;9.17;5.10;;;6.20;99.90;;;;;;5077396;28;20039;-71
2023/12/14 12:49:52;;;;;;;14.90;5.10;;;6.20;99.90;;;;;;5075631;28;20054;-70
2023/12/14 12:52:18;;;;;;;12.13;5.17;;;6.20;99.90;;;;;;5080809;28;20040;-70